createdAt,value
2023-01-13T00:01:32.739Z,99.42
2023-01-13T00:04:00.278Z,97.76
2023-01-13T00:06:27.043Z,98.20
2023-01-13T00:08:54.460Z,98.03
2023-01-13T00:11:21.717Z,100.00
2023-01-13T00:13:48.331Z,100.00
2023-01-13T00:16:17.131Z,100.00
2023-01-13T00:18:44.189Z,99.64
2023-01-13T00:21:19.683Z,98.84
2023-01-13T00:23:46.951Z,98.67
2023-01-13T00:26:19.682Z,98.95
2023-01-13T00:28:46.701Z,97.71
2023-01-13T00:31:20.019Z,97.95
2023-01-13T00:33:46.728Z,96.53
2023-01-13T00:36:15.070Z,97.03
2023-01-13T00:38:43.057Z,97.93
2023-01-13T00:41:17.804Z,99.31
2023-01-13T00:43:44.419Z,99.36
2023-01-13T00:46:12.995Z,98.68
2023-01-13T00:48:39.989Z,97.69
2023-01-13T00:51:11.160Z,99.15
2023-01-13T00:53:40.044Z,100.00
2023-01-13T00:56:14.332Z,100.00
2023-01-13T00:58:41.826Z,100.00
2023-01-13T01:01:15.178Z,100.00
2023-01-13T01:03:41.778Z,100.00
2023-01-13T01:06:12.886Z,100.00
2023-01-13T01:08:40.361Z,100.00
2023-01-13T01:11:29.153Z,100.00
2023-01-13T01:13:57.763Z,100.00
2023-01-13T01:16:26.700Z,100.00
2023-01-13T01:18:54.589Z,100.00
2023-01-13T01:21:23.000Z,100.00
2023-01-13T01:23:49.705Z,100.00
2023-01-13T01:26:19.602Z,100.00
2023-01-13T01:28:46.614Z,100.00
2023-01-13T01:31:25.475Z,100.00
2023-01-13T01:33:53.746Z,100.00
2023-01-13T01:36:22.206Z,100.00
2023-01-13T01:38:49.691Z,100.00
2023-01-13T01:41:22.452Z,100.00
2023-01-13T01:44:02.744Z,100.00
2023-01-13T01:46:43.836Z,100.00
2023-01-13T01:49:25.664Z,100.00
2023-01-13T01:52:01.635Z,100.00
2023-01-13T01:54:36.843Z,100.00
2023-01-13T01:57:03.998Z,100.00
2023-01-13T01:59:35.267Z,100.00
2023-01-13T02:02:02.460Z,100.00
2023-01-13T02:04:36.378Z,100.00
2023-01-13T02:07:03.989Z,100.00
2023-01-13T02:09:31.179Z,100.00
2023-01-13T02:12:16.242Z,100.00
2023-01-13T02:14:44.197Z,100.00
2023-01-13T02:17:10.715Z,100.00
2023-01-13T02:20:09.761Z,100.00
2023-01-13T02:22:49.128Z,100.00
2023-01-13T02:25:18.669Z,100.00
2023-01-13T02:27:56.394Z,100.00
2023-01-13T02:30:59.949Z,100.00
2023-01-13T02:34:01.511Z,100.00
2023-01-13T02:36:34.722Z,100.00
2023-01-13T02:39:16.278Z,100.00
2023-01-13T02:42:08.775Z,100.00
2023-01-13T02:44:48.498Z,100.00
2023-01-13T02:47:22.817Z,100.00
2023-01-13T02:49:52.815Z,100.00
2023-01-13T02:52:32.870Z,100.00
2023-01-13T02:55:05.719Z,100.00
2023-01-13T02:57:35.360Z,100.00
2023-01-13T03:00:04.691Z,100.00
2023-01-13T03:02:31.456Z,100.00
2023-01-13T03:05:00.203Z,100.00
2023-01-13T03:07:45.463Z,100.00
2023-01-13T03:10:44.338Z,100.00
2023-01-13T03:13:36.508Z,100.00
2023-01-13T03:16:27.994Z,100.00
2023-01-13T03:19:16.053Z,100.00
2023-01-13T03:22:01.525Z,100.00
2023-01-13T03:24:40.119Z,100.00
2023-01-13T03:27:38.789Z,100.00
2023-01-13T03:30:12.576Z,100.00
2023-01-13T03:32:43.647Z,100.00
2023-01-13T03:35:19.089Z,100.00
2023-01-13T03:37:55.886Z,100.00
2023-01-13T03:40:29.063Z,100.00
2023-01-13T03:43:27.492Z,100.00
2023-01-13T03:45:59.918Z,100.00
2023-01-13T03:48:30.468Z,100.00
2023-01-13T03:51:04.996Z,100.00
2023-01-13T03:53:48.233Z,100.00
2023-01-13T03:56:27.132Z,100.00
2023-01-13T03:58:54.504Z,100.00
2023-01-13T04:01:32.455Z,100.00
2023-01-13T04:04:12.703Z,100.00
2023-01-13T04:07:06.828Z,100.00
2023-01-13T04:09:55.815Z,100.00
2023-01-13T04:12:51.480Z,100.00
2023-01-13T04:15:21.863Z,100.00
2023-01-13T04:17:48.442Z,100.00
2023-01-13T04:20:15.425Z,100.00
2023-01-13T04:22:42.154Z,100.00
2023-01-13T04:25:09.806Z,100.00
2023-01-13T04:27:36.342Z,100.00
2023-01-13T04:30:04.200Z,100.00
2023-01-13T04:32:30.807Z,100.00
2023-01-13T04:34:57.798Z,100.00
2023-01-13T04:37:24.375Z,100.00
2023-01-13T04:39:50.980Z,100.00
2023-01-13T04:42:17.566Z,100.00
2023-01-13T04:44:44.224Z,100.00
2023-01-13T04:47:10.780Z,100.00
2023-01-13T04:49:37.326Z,100.00
2023-01-13T04:52:04.148Z,100.00
2023-01-13T04:54:30.839Z,100.00
2023-01-13T04:56:57.556Z,100.00
2023-01-13T04:59:24.124Z,100.00
2023-01-13T05:01:50.859Z,100.00
2023-01-13T05:04:17.521Z,100.00
2023-01-13T05:06:44.167Z,100.00
2023-01-13T05:09:12.451Z,100.00
2023-01-13T05:11:58.054Z,100.00
2023-01-13T05:14:42.989Z,100.00
2023-01-13T05:17:19.958Z,100.00
2023-01-13T05:19:47.456Z,100.00
2023-01-13T05:22:32.971Z,100.00
2023-01-13T05:25:18.223Z,100.00
2023-01-13T05:27:44.961Z,100.00
2023-01-13T05:30:12.046Z,100.00
2023-01-13T05:32:38.575Z,100.00
2023-01-13T05:35:05.872Z,100.00
2023-01-13T05:37:32.587Z,100.00
2023-01-13T05:40:17.697Z,100.00
2023-01-13T05:43:03.027Z,100.00
2023-01-13T05:45:32.641Z,100.00
2023-01-13T05:47:59.355Z,100.00
2023-01-13T05:50:25.991Z,100.00
2023-01-13T05:52:52.632Z,100.00
2023-01-13T05:55:19.276Z,100.00
2023-01-13T05:57:45.889Z,100.00
2023-01-13T06:00:12.901Z,100.00
2023-01-13T06:02:39.526Z,100.00
2023-01-13T06:05:06.380Z,100.00
2023-01-13T06:07:32.967Z,100.00
2023-01-13T06:09:59.597Z,100.00
2023-01-13T06:12:26.291Z,100.00
2023-01-13T06:14:52.966Z,100.00
2023-01-13T06:17:19.553Z,100.00
2023-01-13T06:19:46.297Z,100.00
2023-01-13T06:22:17.457Z,100.00
2023-01-13T06:24:46.225Z,100.00
2023-01-13T06:27:13.308Z,100.00
2023-01-13T06:29:39.947Z,100.00
2023-01-13T06:32:13.038Z,100.00
2023-01-13T06:34:41.616Z,100.00
2023-01-13T06:37:08.232Z,100.00
2023-01-13T06:39:35.966Z,100.00
2023-01-13T06:42:22.166Z,100.00
2023-01-13T06:44:49.284Z,100.00
2023-01-13T06:47:16.166Z,100.00
2023-01-13T06:49:42.832Z,100.00
2023-01-13T06:52:09.433Z,100.00
2023-01-13T06:54:36.247Z,100.00
2023-01-13T06:57:03.671Z,100.00
2023-01-13T06:59:30.349Z,100.00
2023-01-13T07:01:57.077Z,100.00
2023-01-13T07:04:24.029Z,100.00
2023-01-13T07:06:50.641Z,100.00
2023-01-13T07:09:17.295Z,100.00
2023-01-13T07:11:43.976Z,100.00
2023-01-13T07:14:29.180Z,100.00
2023-01-13T07:16:55.827Z,100.00
2023-01-13T07:19:24.009Z,100.00
2023-01-13T07:21:53.786Z,100.00
2023-01-13T07:24:20.925Z,100.00
2023-01-13T07:26:47.545Z,100.00
2023-01-13T07:29:16.677Z,100.00
2023-01-13T07:31:43.414Z,100.00
2023-01-13T07:34:12.171Z,100.00
2023-01-13T07:36:39.369Z,100.00
2023-01-13T07:39:06.372Z,100.00
2023-01-13T07:41:51.633Z,100.00
2023-01-13T07:44:18.238Z,100.00
2023-01-13T07:46:44.972Z,100.00
2023-01-13T07:49:11.674Z,100.00
2023-01-13T07:51:39.444Z,100.00
2023-01-13T07:54:06.672Z,100.00
2023-01-13T07:56:33.442Z,100.00
2023-01-13T07:59:01.119Z,100.00
2023-01-13T08:01:28.457Z,100.00
2023-01-13T08:03:56.317Z,100.00
2023-01-13T08:06:23.460Z,100.00
2023-01-13T08:08:50.552Z,100.00
2023-01-13T08:11:17.968Z,100.00
2023-01-13T08:13:45.339Z,100.00
2023-01-13T08:16:14.458Z,100.00
2023-01-13T08:18:42.154Z,100.00
2023-01-13T08:21:11.854Z,100.00
2023-01-13T08:23:39.219Z,100.00
2023-01-13T08:26:09.414Z,100.00
2023-01-13T08:28:36.679Z,100.00
2023-01-13T08:31:05.912Z,100.00
2023-01-13T08:33:33.514Z,100.00
2023-01-13T08:36:06.777Z,100.00
2023-01-13T08:38:34.610Z,100.00
2023-01-13T08:41:01.957Z,100.00
2023-01-13T08:43:28.644Z,100.00
2023-01-13T08:46:04.556Z,100.00
2023-01-13T08:48:31.819Z,100.00
2023-01-13T08:51:07.003Z,100.00
2023-01-13T08:53:33.771Z,100.00
2023-01-13T08:56:00.511Z,100.00
2023-01-13T08:58:27.222Z,100.00
2023-01-13T09:00:53.883Z,100.00
2023-01-13T09:03:20.594Z,100.00
2023-01-13T09:05:47.291Z,100.00
2023-01-13T09:08:13.928Z,100.00
2023-01-13T09:10:40.664Z,100.00
2023-01-13T09:13:12.463Z,95.64
2023-01-13T09:15:44.487Z,94.20
2023-01-13T09:18:12.267Z,93.06
2023-01-13T09:20:39.399Z,92.69
2023-01-13T09:23:09.857Z,91.40
2023-01-13T09:25:37.063Z,92.10
2023-01-13T09:28:08.595Z,90.40
2023-01-13T09:30:37.272Z,89.06
2023-01-13T09:33:22.375Z,86.22
2023-01-13T09:35:48.962Z,84.87
2023-01-13T09:38:15.519Z,82.63
2023-01-13T09:40:43.964Z,83.46
2023-01-13T09:43:53.555Z,80.88
2023-01-13T09:46:42.773Z,80.21
2023-01-13T09:49:22.690Z,77.78
2023-01-13T09:51:57.834Z,75.93
2023-01-13T09:54:58.085Z,74.66
2023-01-13T09:57:26.824Z,74.81
2023-01-13T09:59:53.440Z,76.56
2023-01-13T10:02:40.094Z,76.00
2023-01-13T10:05:50.265Z,73.75
2023-01-13T10:08:24.684Z,75.85
2023-01-13T10:10:58.456Z,75.58
2023-01-13T10:13:30.684Z,73.74
2023-01-13T10:16:14.249Z,73.44
2023-01-13T10:18:59.310Z,74.42
2023-01-13T10:21:57.620Z,77.52
2023-01-13T10:24:52.279Z,77.51
2023-01-13T10:27:35.164Z,76.47
2023-01-13T10:30:18.011Z,73.69
2023-01-13T10:32:52.242Z,74.10
2023-01-13T10:35:18.901Z,74.81
2023-01-13T10:37:57.469Z,73.68
2023-01-13T10:40:24.041Z,74.93
2023-01-13T10:43:06.547Z,76.35
2023-01-13T10:45:33.284Z,75.76
2023-01-13T10:48:10.400Z,75.15
2023-01-13T10:50:38.652Z,75.11
2023-01-13T10:53:22.826Z,75.30
2023-01-13T10:56:02.131Z,76.54
2023-01-13T10:58:29.385Z,78.65
2023-01-13T11:01:05.286Z,76.50
2023-01-13T11:03:43.177Z,77.17
2023-01-13T11:06:19.058Z,79.49
2023-01-13T11:08:49.388Z,79.54
2023-01-13T11:11:47.489Z,77.72
2023-01-13T11:14:37.023Z,80.12
2023-01-13T11:17:12.330Z,79.94
2023-01-13T11:19:44.613Z,78.79
2023-01-13T11:22:23.491Z,76.87
2023-01-13T11:25:01.543Z,77.68
2023-01-13T11:27:56.115Z,76.74
2023-01-13T11:30:56.235Z,78.33
2023-01-13T11:33:41.764Z,75.58
2023-01-13T11:36:21.057Z,76.88
2023-01-13T11:38:54.244Z,75.75
2023-01-13T11:41:25.151Z,72.56
2023-01-13T11:43:59.240Z,74.32
2023-01-13T11:46:28.926Z,73.43
2023-01-13T11:48:56.627Z,74.41
2023-01-13T11:51:38.852Z,76.77
2023-01-13T11:54:24.364Z,75.04
2023-01-13T11:57:27.971Z,76.52
2023-01-13T12:00:11.037Z,76.88
2023-01-13T12:02:40.199Z,76.81
2023-01-13T12:05:06.758Z,80.00
2023-01-13T12:07:58.430Z,82.11
2023-01-13T12:10:49.974Z,83.67
2023-01-13T12:13:35.268Z,83.09
2023-01-13T12:16:26.744Z,82.67
2023-01-13T12:19:21.358Z,83.15
2023-01-13T12:22:08.816Z,83.69
2023-01-13T12:24:44.654Z,84.33
2023-01-13T12:27:37.696Z,84.75
2023-01-13T12:30:13.244Z,83.26
2023-01-13T12:32:41.260Z,82.55
2023-01-13T12:35:23.332Z,82.57
2023-01-13T12:38:13.392Z,80.16
2023-01-13T12:41:02.968Z,78.57
2023-01-13T12:43:48.667Z,77.54
2023-01-13T12:46:24.676Z,76.20
2023-01-13T12:48:53.032Z,77.05
2023-01-13T12:51:33.395Z,76.34
2023-01-13T12:54:41.496Z,75.45
2023-01-13T12:57:36.745Z,75.80
2023-01-13T13:00:03.305Z,76.14
2023-01-13T13:02:34.293Z,77.20
2023-01-13T13:05:23.145Z,76.16
2023-01-13T13:08:01.031Z,77.37
2023-01-13T13:10:34.035Z,80.04
2023-01-13T13:13:18.197Z,80.27
2023-01-13T13:15:47.239Z,80.74
2023-01-13T13:18:16.902Z,79.83
2023-01-13T13:21:05.261Z,79.13
2023-01-13T13:23:43.613Z,77.93
2023-01-13T13:26:20.166Z,76.53
2023-01-13T13:29:28.211Z,77.24
2023-01-13T13:32:07.201Z,77.02
2023-01-13T13:35:08.197Z,77.69
2023-01-13T13:38:05.534Z,78.97
2023-01-13T13:40:58.089Z,79.69
2023-01-13T13:43:44.104Z,78.64
2023-01-13T13:46:44.278Z,79.23
2023-01-13T13:49:12.115Z,77.76
2023-01-13T13:52:00.369Z,78.64
2023-01-13T13:54:27.894Z,79.35
2023-01-13T13:56:54.645Z,80.13
2023-01-13T13:59:27.628Z,79.94
2023-01-13T14:02:01.741Z,79.98
2023-01-13T14:04:35.610Z,80.13
2023-01-13T14:07:16.143Z,81.09
2023-01-13T14:09:46.306Z,79.80
2023-01-13T14:12:22.043Z,79.95
2023-01-13T14:14:49.695Z,80.06
2023-01-13T14:17:22.609Z,79.37
2023-01-13T14:20:16.643Z,80.09
2023-01-13T14:22:47.282Z,80.92
2023-01-13T14:25:39.743Z,82.17
2023-01-13T14:28:28.496Z,83.24
2023-01-13T14:30:56.521Z,82.98
2023-01-13T14:33:29.248Z,83.45
2023-01-13T14:36:07.175Z,83.83
2023-01-13T14:38:33.896Z,84.22
2023-01-13T14:41:15.424Z,85.25
2023-01-13T14:43:44.799Z,85.51
2023-01-13T14:46:11.848Z,85.84
2023-01-13T14:48:39.570Z,86.91
2023-01-13T14:51:10.918Z,86.88
2023-01-13T14:53:46.952Z,86.67
2023-01-13T14:56:40.331Z,87.20
2023-01-13T14:59:47.489Z,87.21
2023-01-13T15:02:59.554Z,87.36
2023-01-13T15:05:26.184Z,87.63
2023-01-13T15:08:01.743Z,88.13
2023-01-13T15:10:33.697Z,88.30
2023-01-13T15:13:04.295Z,88.23
2023-01-13T15:15:36.513Z,88.51
2023-01-13T15:18:12.536Z,89.27
2023-01-13T15:20:40.294Z,88.92
2023-01-13T15:23:06.869Z,89.12
2023-01-13T15:25:41.331Z,90.05
2023-01-13T15:28:21.971Z,92.09
2023-01-13T15:30:50.438Z,91.29
2023-01-13T15:33:18.062Z,90.71
2023-01-13T15:35:47.886Z,91.07
2023-01-13T15:38:16.987Z,92.08
2023-01-13T15:40:44.094Z,92.83
2023-01-13T15:43:34.351Z,93.03
2023-01-13T15:46:21.223Z,96.85
2023-01-13T15:48:50.119Z,96.23
2023-01-13T15:51:21.248Z,96.34
2023-01-13T15:53:47.802Z,95.93
2023-01-13T15:56:36.249Z,98.00
2023-01-13T15:59:04.676Z,98.93
2023-01-13T16:01:31.525Z,98.31
2023-01-13T16:03:58.147Z,98.21
2023-01-13T16:06:29.961Z,96.56
2023-01-13T16:08:56.578Z,96.38
2023-01-13T16:11:23.154Z,94.78
2023-01-13T16:13:49.782Z,94.74
2023-01-13T16:16:23.348Z,94.02
2023-01-13T16:18:51.105Z,94.04
2023-01-13T16:21:21.600Z,94.70
2023-01-13T16:23:49.784Z,94.82
2023-01-13T16:26:27.104Z,94.07
2023-01-13T16:28:55.777Z,93.59
2023-01-13T16:31:32.273Z,92.19
2023-01-13T16:34:01.038Z,91.91
2023-01-13T16:36:29.473Z,91.69
2023-01-13T16:38:57.018Z,95.29
2023-01-13T16:41:25.022Z,97.93
2023-01-13T16:43:52.411Z,96.21
2023-01-13T16:46:21.009Z,95.74
2023-01-13T16:48:48.691Z,95.63
2023-01-13T16:51:15.490Z,95.77
2023-01-13T16:53:42.126Z,96.10
2023-01-13T16:56:30.204Z,96.53
2023-01-13T16:58:59.318Z,97.21
2023-01-13T17:01:31.976Z,99.09
2023-01-13T17:03:59.357Z,99.55
2023-01-13T17:06:41.784Z,99.79
2023-01-13T17:09:14.412Z,99.46
2023-01-13T17:11:41.118Z,100.00
2023-01-13T17:14:19.181Z,100.00
2023-01-13T17:16:46.999Z,100.00
2023-01-13T17:19:14.367Z,100.00
2023-01-13T17:21:42.375Z,100.00
2023-01-13T17:24:10.697Z,100.00
2023-01-13T17:26:42.122Z,100.00
2023-01-13T17:29:12.867Z,100.00
2023-01-13T17:31:39.545Z,100.00
2023-01-13T17:34:06.129Z,100.00
2023-01-13T17:36:33.121Z,100.00
2023-01-13T17:38:59.780Z,100.00
2023-01-13T17:41:26.744Z,100.00
2023-01-13T17:43:53.896Z,100.00
2023-01-13T17:46:23.085Z,100.00
2023-01-13T17:48:53.705Z,100.00
2023-01-13T17:51:22.665Z,100.00
2023-01-13T17:53:49.338Z,100.00
2023-01-13T17:56:16.888Z,100.00
2023-01-13T17:58:45.531Z,100.00
2023-01-13T18:01:18.773Z,100.00
2023-01-13T18:03:45.702Z,100.00
2023-01-13T18:06:22.155Z,100.00
2023-01-13T18:08:49.778Z,100.00
2023-01-13T18:11:19.041Z,100.00
2023-01-13T18:13:48.073Z,100.00
2023-01-13T18:16:17.630Z,100.00
2023-01-13T18:18:46.434Z,100.00
2023-01-13T18:21:43.994Z,100.00
2023-01-13T18:24:34.954Z,100.00
2023-01-13T18:27:22.803Z,100.00
2023-01-13T18:29:56.654Z,100.00
2023-01-13T18:32:26.544Z,100.00
2023-01-13T18:35:04.844Z,100.00
2023-01-13T18:37:32.641Z,100.00
2023-01-13T18:39:59.597Z,100.00
2023-01-13T18:42:44.816Z,100.00
2023-01-13T18:45:11.790Z,100.00
2023-01-13T18:47:40.870Z,100.00
2023-01-13T18:50:08.793Z,100.00
2023-01-13T18:52:36.586Z,100.00
2023-01-13T18:55:04.059Z,100.00
2023-01-13T18:57:32.141Z,100.00
2023-01-13T19:00:00.031Z,100.00
2023-01-13T19:02:28.590Z,100.00
2023-01-13T19:04:55.962Z,100.00
2023-01-13T19:07:26.949Z,100.00
2023-01-13T19:09:59.434Z,100.00
2023-01-13T19:12:28.173Z,100.00
2023-01-13T19:14:56.517Z,100.00
2023-01-13T19:17:26.507Z,100.00
2023-01-13T19:19:56.135Z,100.00
2023-01-13T19:22:30.183Z,100.00
2023-01-13T19:24:58.266Z,100.00
2023-01-13T19:27:28.167Z,100.00
2023-01-13T19:29:58.429Z,100.00
2023-01-13T19:32:27.477Z,100.00
2023-01-13T19:34:56.391Z,100.00
2023-01-13T19:37:23.118Z,100.00
2023-01-13T19:39:50.934Z,100.00
2023-01-13T19:42:36.686Z,100.00
2023-01-13T19:45:22.118Z,100.00
2023-01-13T19:47:49.706Z,100.00
2023-01-13T19:50:17.384Z,100.00
2023-01-13T19:52:44.814Z,100.00
2023-01-13T19:55:13.658Z,100.00
2023-01-13T19:57:41.297Z,100.00
2023-01-13T20:00:09.969Z,100.00
2023-01-13T20:02:37.239Z,100.00
2023-01-13T20:05:07.799Z,100.00
2023-01-13T20:07:35.824Z,100.00
2023-01-13T20:10:03.234Z,100.00
2023-01-13T20:12:30.795Z,99.97
2023-01-13T20:14:59.060Z,98.39
2023-01-13T20:17:27.139Z,97.32
2023-01-13T20:19:54.939Z,97.38
2023-01-13T20:22:21.883Z,95.38
2023-01-13T20:24:52.980Z,96.33
2023-01-13T20:27:20.583Z,96.21
2023-01-13T20:29:47.754Z,96.89
2023-01-13T20:32:15.749Z,97.17
2023-01-13T20:34:43.071Z,98.58
2023-01-13T20:37:10.661Z,98.72
2023-01-13T20:39:37.977Z,97.87
2023-01-13T20:42:23.237Z,96.38
2023-01-13T20:44:50.092Z,95.24
2023-01-13T20:47:17.346Z,96.46
2023-01-13T20:49:44.310Z,97.09
2023-01-13T20:52:10.947Z,97.15
2023-01-13T20:54:38.707Z,97.44
2023-01-13T20:57:06.866Z,98.76
2023-01-13T20:59:34.029Z,98.84
2023-01-13T21:02:01.075Z,99.94
2023-01-13T21:04:28.137Z,100.00
2023-01-13T21:06:56.253Z,99.28
2023-01-13T21:09:24.407Z,100.00
2023-01-13T21:12:09.782Z,100.00
2023-01-13T21:14:54.911Z,100.00
2023-01-13T21:17:40.438Z,100.00
2023-01-13T21:20:09.947Z,100.00
2023-01-13T21:22:36.620Z,100.00
2023-01-13T21:25:04.798Z,100.00
2023-01-13T21:27:32.021Z,100.00
2023-01-13T21:29:58.648Z,100.00
2023-01-13T21:32:26.032Z,100.00
2023-01-13T21:34:52.650Z,100.00
2023-01-13T21:37:19.228Z,100.00
2023-01-13T21:39:45.797Z,100.00
2023-01-13T21:42:34.586Z,100.00
2023-01-13T21:45:20.152Z,100.00
2023-01-13T21:47:49.965Z,100.00
2023-01-13T21:50:18.131Z,100.00
2023-01-13T21:52:45.015Z,100.00
2023-01-13T21:55:24.692Z,100.00
2023-01-13T21:57:55.176Z,100.00
2023-01-13T22:00:24.377Z,100.00
2023-01-13T22:02:51.322Z,100.00
2023-01-13T22:05:20.374Z,100.00
2023-01-13T22:07:47.650Z,100.00
2023-01-13T22:10:17.099Z,100.00
2023-01-13T22:12:43.809Z,100.00
2023-01-13T22:15:15.307Z,100.00
2023-01-13T22:17:42.783Z,100.00
2023-01-13T22:20:11.382Z,100.00
2023-01-13T22:22:39.038Z,100.00
2023-01-13T22:25:08.932Z,100.00
2023-01-13T22:27:41.172Z,100.00
2023-01-13T22:30:21.694Z,100.00
2023-01-13T22:32:48.804Z,100.00
2023-01-13T22:35:15.796Z,100.00
2023-01-13T22:37:43.377Z,100.00
2023-01-13T22:40:11.964Z,100.00
2023-01-13T22:42:40.451Z,100.00
2023-01-13T22:45:10.519Z,100.00
2023-01-13T22:47:37.106Z,100.00
2023-01-13T22:50:05.127Z,100.00
2023-01-13T22:52:33.589Z,100.00
2023-01-13T22:55:00.874Z,100.00
2023-01-13T22:57:36.634Z,100.00
2023-01-13T23:00:10.400Z,100.00
2023-01-13T23:02:38.527Z,100.00
2023-01-13T23:05:05.565Z,100.00
2023-01-13T23:07:32.157Z,100.00
2023-01-13T23:09:58.727Z,100.00
2023-01-13T23:12:25.383Z,100.00
2023-01-13T23:14:51.933Z,100.00
2023-01-13T23:17:18.488Z,100.00
2023-01-13T23:19:45.238Z,100.00
2023-01-13T23:22:13.112Z,100.00
2023-01-13T23:24:39.754Z,100.00
2023-01-13T23:27:06.368Z,100.00
2023-01-13T23:29:32.948Z,100.00
2023-01-13T23:31:59.533Z,100.00
2023-01-13T23:34:26.244Z,100.00
2023-01-13T23:36:52.864Z,100.00
2023-01-13T23:39:19.461Z,100.00
2023-01-13T23:41:46.017Z,100.00
2023-01-13T23:44:12.594Z,100.00
2023-01-13T23:46:39.487Z,100.00
2023-01-13T23:49:06.182Z,100.00
2023-01-13T23:51:33.225Z,100.00
2023-01-13T23:54:00.022Z,100.00
2023-01-13T23:56:29.847Z,100.00
2023-01-13T23:58:57.408Z,100.00
